Home > Products > Valid Products > TAF

000
FTUS42 KMLB 110744 AAA
TAFDAB
TAF AMD
KDAB 110744Z 1108/1206 24005KT 4SM FU SKC
     FM111200 26005KT P6SM SKC
     FM112000 24004KT P6SM SKC=



000
FTUS42 KMLB 110531
TAFDAB
TAF
KDAB 110531Z 1106/1206 24004KT P6SM SKC
     FM112000 24004KT P6SM SKC=



000
FTUS42 KMLB 110531
TAFMCO
TAF
KMCO 110531Z 1106/1206 32005KT P6SM SKC
     FM120000 24003KT P6SM SKC=



000
FTUS42 KMLB 110531
TAFVRB
TAF
KVRB 110531Z 1106/1206 29005KT P6SM SKC
     FM111800 36008KT P6SM SKC
     FM120000 00000KT P6SM SKC=



000
FTUS42 KMLB 110531
TAFMLB
TAF
KMLB 110531Z 1106/1206 29005KT P6SM SKC
     FM111800 35008KT P6SM SKC
     FM120000 00000KT P6SM SKC=



000
FTUS42 KMLB 110531
TAFDAB
TAF
KDAB 110531Z 1106/1206 24004KT P6SM SKC
     FM112000 24004KT P6SM SKC=



000
FTUS42 KMLB 110531
TAFSFB
TAF
KSFB 110531Z 1106/1206 32005KT P6SM SKC
     FM112000 24004KT P6SM SKC=



000
FTUS42 KMLB 110531
TAFSFB
TAF
KSFB 110531Z 1106/1206 32005KT P6SM SKC
     FM112000 24004KT P6SM SKC=



000
FTUS42 KMLB 110531
TAFVRB
TAF
KVRB 110531Z 1106/1206 29005KT P6SM SKC
     FM111800 36008KT P6SM SKC
     FM120000 00000KT P6SM SKC=



000
FTUS42 KMLB 110531
TAFMCO
TAF
KMCO 110531Z 1106/1206 32005KT P6SM SKC
     FM120000 24003KT P6SM SKC=



000
FTUS42 KMLB 110531
TAFMLB
TAF
KMLB 110531Z 1106/1206 29005KT P6SM SKC
     FM111800 35008KT P6SM SKC
     FM120000 00000KT P6SM SKC=



000
FTUS42 KMLB 110256 AAA
TAFMCO
TAF AMD
KMCO 110256Z 1103/1124 28006KT P6SM SKC
     FM111200 34006KT P6SM SKC=



000
FTUS42 KMLB 110256 AAA
TAFMCO
TAF AMD
KMCO 110256Z 1103/1124 28006KT P6SM SKC
     FM111200 34006KT P6SM SKC=



000
FTUS42 KMLB 102336
TAFDAB
TAF
KDAB 102336Z 1100/1124 25011KT P6SM FEW250
     FM110300 28004KT P6SM SKC
     FM111200 31004KT P6SM SKC=



000
FTUS42 KMLB 102336
TAFMCO
TAF
KMCO 102336Z 1100/1124 28012KT P6SM FEW027 FEW060
     FM110300 31006KT P6SM SKC
     FM111200 34006KT P6SM SKC=



000
FTUS42 KMLB 102336
TAFMLB
TAF
KMLB 102336Z 1100/1124 28014G23KT P6SM SKC
     FM110200 28008KT P6SM SKC
     FM111200 31006KT P6SM SKC=



000
FTUS42 KMLB 102336
TAFVRB
TAF
KVRB 102336Z 1100/1124 28008KT P6SM FEW060
     FM110200 28007KT P6SM SKC
     FM111200 31005KT P6SM SKC=



000
FTUS42 KMLB 102336
TAFSFB
TAF
KSFB 102336Z 1100/1124 28015KT P6SM SKC
     FM110310 29005KT P6SM SKC
     FM111200 32005KT P6SM SKC=



000
FTUS42 KMLB 102336
TAFDAB
TAF
KDAB 102336Z 1100/1124 25011KT P6SM FEW250
     FM110300 28004KT P6SM SKC
     FM111200 31004KT P6SM SKC=



000
FTUS42 KMLB 102336
TAFMLB
TAF
KMLB 102336Z 1100/1124 28014G23KT P6SM SKC
     FM110200 28008KT P6SM SKC
     FM111200 31006KT P6SM SKC=



000
FTUS42 KMLB 102336
TAFMCO
TAF
KMCO 102336Z 1100/1124 28012KT P6SM FEW027 FEW060
     FM110300 31006KT P6SM SKC
     FM111200 34006KT P6SM SKC=



000
FTUS42 KMLB 102336
TAFVRB
TAF
KVRB 102336Z 1100/1124 28008KT P6SM FEW060
     FM110200 28007KT P6SM SKC
     FM111200 31005KT P6SM SKC=



000
FTUS42 KMLB 102336
TAFSFB
TAF
KSFB 102336Z 1100/1124 28015KT P6SM SKC
     FM110310 29005KT P6SM SKC
     FM111200 32005KT P6SM SKC=



000
FTUS42 KMLB 102213 AAA
TAFDAB
TAF AMD
KDAB 102213Z 1022/1118 28012G20KT P6SM FEW200
     FM110100 28004KT P6SM SKC
     FM111200 31004KT P6SM SKC=



000
FTUS42 KMLB 102206 AAA
TAFVRB
TAF AMD
KVRB 102206Z 1022/1118 27011KT P6SM FEW060 SCT250
     FM110100 28007KT P6SM SKC
     FM111200 31005KT P6SM SKC=



000
FTUS42 KMLB 102206 AAA
TAFVRB
TAF AMD
KVRB 102206Z 1022/1118 27011KT P6SM FEW060 SCT250
     FM110100 28007KT P6SM SKC
     FM111200 31005KT P6SM SKC=



000
FTUS42 KMLB 102059 AAA
TAFMCO
TAF AMD
KMCO 102059Z 1021/1118 29017G24KT P6SM FEW060 FEW250
     FM110100 31006KT P6SM SKC
     FM111200 34006KT P6SM SKC=



000
FTUS42 KMLB 101722
TAFMLB
TAF
KMLB 101722Z 1018/1118 28014G22KT P6SM FEW060 FEW250
     FM110100 28008KT P6SM SKC
     FM111200 31006KT P6SM SKC=



000
FTUS42 KMLB 101722
TAFVRB
TAF
KVRB 101722Z 1018/1118 29012G22KT P6SM FEW060 SCT250
     FM110100 28007KT P6SM SKC
     FM111200 31005KT P6SM SKC=



000
FTUS42 KMLB 101722
TAFDAB
TAF
KDAB 101722Z 1018/1118 28020G27KT P6SM FEW200
     FM110100 28004KT P6SM SKC
     FM111200 31004KT P6SM SKC=



000
FTUS42 KMLB 101722
TAFMCO
TAF
KMCO 101722Z 1018/1118 29020G26KT P6SM FEW060 FEW250
     FM110100 31006KT P6SM SKC
     FM111200 34006KT P6SM SKC=



000
FTUS42 KMLB 101722
TAFSFB
TAF
KSFB 101722Z 1018/1118 29018G27KT P6SM SKC
     FM110100 29005KT P6SM SKC
     FM111200 32005KT P6SM SKC=



000
FTUS42 KMLB 101722
TAFMCO
TAF
KMCO 101722Z 1018/1118 29020G26KT P6SM FEW060 FEW250
     FM110100 31006KT P6SM SKC
     FM111200 34006KT P6SM SKC=



000
FTUS42 KMLB 101722
TAFSFB
TAF
KSFB 101722Z 1018/1118 29018G27KT P6SM SKC
     FM110100 29005KT P6SM SKC
     FM111200 32005KT P6SM SKC=



000
FTUS42 KMLB 101722
TAFMLB
TAF
KMLB 101722Z 1018/1118 28014G22KT P6SM FEW060 FEW250
     FM110100 28008KT P6SM SKC
     FM111200 31006KT P6SM SKC=



000
FTUS42 KMLB 101722
TAFDAB
TAF
KDAB 101722Z 1018/1118 28020G27KT P6SM FEW200
     FM110100 28004KT P6SM SKC
     FM111200 31004KT P6SM SKC=



000
FTUS42 KMLB 101722
TAFVRB
TAF
KVRB 101722Z 1018/1118 29012G22KT P6SM FEW060 SCT250
     FM110100 28007KT P6SM SKC
     FM111200 31005KT P6SM SKC=



000
FTUS42 KMLB 101507 AAA
TAFMCO
TAF AMD
KMCO 101507Z 1015/1112 31011KT P6SM FEW060 BKN250
     FM101600 29016G23KT P6SM SCT250
     FM110100 31006KT P6SM SKC=



000
FTUS42 KMLB 101135
TAFVRB
TAF
KVRB 101135Z 1012/1112 32005KT P6SM FEW060 BKN250
     FM101400 29015G22KT P6SM SCT250
     FM110100 29006KT P6SM SKC=



000
FTUS42 KMLB 101135
TAFSFB
TAF
KSFB 101135Z 1012/1112 31007KT P6SM SKC
     FM101400 28018G25KT P6SM SKC
     FM110100 32005KT P6SM SKC=



000
FTUS42 KMLB 101135
TAFMCO
TAF
KMCO 101135Z 1012/1112 33008KT P6SM SCT050 SCT250
     FM101400 29018G25KT P6SM SKC
     FM110100 31006KT P6SM SKC=



000
FTUS42 KMLB 101135
TAFMLB
TAF
KMLB 101135Z 1012/1112 32009KT P6SM BKN250
     FM101400 29017G24KT P6SM SKC
     FM110100 29006KT P6SM SKC=



000
FTUS42 KMLB 101135
TAFDAB
TAF
KDAB 101135Z 1012/1112 27007KT P6SM SKC
     FM101400 27017G25KT P6SM SKC
     FM110100 32004KT P6SM SKC=



000
FTUS42 KMLB 101135
TAFMLB
TAF
KMLB 101135Z 1012/1112 32009KT P6SM BKN250
     FM101400 29017G24KT P6SM SKC
     FM110100 29006KT P6SM SKC=



000
FTUS42 KMLB 101135
TAFMCO
TAF
KMCO 101135Z 1012/1112 33008KT P6SM SCT050 SCT250
     FM101400 29018G25KT P6SM SKC
     FM110100 31006KT P6SM SKC=



000
FTUS42 KMLB 101135
TAFVRB
TAF
KVRB 101135Z 1012/1112 32005KT P6SM FEW060 BKN250
     FM101400 29015G22KT P6SM SCT250
     FM110100 29006KT P6SM SKC=



000
FTUS42 KMLB 101135
TAFSFB
TAF
KSFB 101135Z 1012/1112 31007KT P6SM SKC
     FM101400 28018G25KT P6SM SKC
     FM110100 32005KT P6SM SKC=



000
FTUS42 KMLB 101135
TAFDAB
TAF
KDAB 101135Z 1012/1112 27007KT P6SM SKC
     FM101400 27017G25KT P6SM SKC
     FM110100 32004KT P6SM SKC=



000
FTUS42 KMLB 100822 AAA
TAFMCO
TAF AMD
KMCO 100822Z 1008/1106 31008KT P6SM SCT050 SCT250
      TEMPO 1009/1011 OVC050
     FM101400 29016G24KT P6SM SKC
     FM110100 31006KT P6SM SKC=



000
FTUS42 KMLB 100533
TAFSFB
TAF
KSFB 100533Z 1006/1106 29010KT P6SM SCT250
     FM101400 28017G24KT P6SM SKC
     FM110100 31006KT P6SM SKC=



000
FTUS42 KMLB 100533
TAFVRB
TAF
KVRB 100533Z 1006/1106 27004KT P6SM BKN050 OVC250
     FM101400 29015G22KT P6SM SCT250
     FM110100 29006KT P6SM SKC=



000
FTUS42 KMLB 100533
TAFMCO
TAF
KMCO 100533Z 1006/1106 30010KT P6SM FEW050 SCT250
     FM101400 29016G24KT P6SM SKC
     FM110100 31006KT P6SM SKC=



000
FTUS42 KMLB 100533
TAFDAB
TAF
KDAB 100533Z 1006/1106 27007KT P6SM FEW250
     FM101400 27016G24KT P6SM SKC
     FM110100 28004KT P6SM SKC=



000
FTUS42 KMLB 100533
TAFMLB
TAF
KMLB 100533Z 1006/1106 27008KT P6SM BKN050 BKN250
     FM101400 29016G24KT P6SM FEW250
     FM110100 29006KT P6SM SKC=



000
FTUS42 KMLB 100533
TAFDAB
TAF
KDAB 100533Z 1006/1106 27007KT P6SM FEW250
     FM101400 27016G24KT P6SM SKC
     FM110100 28004KT P6SM SKC=



000
FTUS42 KMLB 100533
TAFMCO
TAF
KMCO 100533Z 1006/1106 30010KT P6SM FEW050 SCT250
     FM101400 29016G24KT P6SM SKC
     FM110100 31006KT P6SM SKC=



000
FTUS42 KMLB 100533
TAFSFB
TAF
KSFB 100533Z 1006/1106 29010KT P6SM SCT250
     FM101400 28017G24KT P6SM SKC
     FM110100 31006KT P6SM SKC=



000
FTUS42 KMLB 100533
TAFMLB
TAF
KMLB 100533Z 1006/1106 27008KT P6SM BKN050 BKN250
     FM101400 29016G24KT P6SM FEW250
     FM110100 29006KT P6SM SKC=



000
FTUS42 KMLB 100533
TAFVRB
TAF
KVRB 100533Z 1006/1106 27004KT P6SM BKN050 OVC250
     FM101400 29015G22KT P6SM SCT250
     FM110100 29006KT P6SM SKC=



000
FTUS42 KMLB 100309 AAA
TAFMCO
TAF AMD
KMCO 100309Z 1003/1024 28011G18KT P6SM FEW040 BKN250
     FM101400 30014G22KT P6SM SKC=



000
FTUS42 KMLB 092334
TAFVRB
TAF
KVRB 092334Z 1000/1024 26011KT P6SM SCT050 BKN250
     FM100600 30011G18KT P6SM SCT050
     FM101400 30015G22KT P6SM SKC=



000
FTUS42 KMLB 092334
TAFSFB
TAF
KSFB 092334Z 1000/1024 26012G18KT P6SM BKN050
     FM100300 29011KT P6SM FEW050
     FM101400 30014G22KT P6SM SKC=



000
FTUS42 KMLB 092334
TAFDAB
TAF
KDAB 092334Z 1000/1024 25012G18KT P6SM SCT050
     FM100300 28010KT P6SM FEW050
     FM101400 29015G23KT P6SM SKC=



000
FTUS42 KMLB 092334
TAFMLB
TAF
KMLB 092334Z 1000/1024 25011KT P6SM SCT050 BKN250
     FM100600 28011G18KT P6SM FEW050 SCT250
     FM101400 30015G22KT P6SM SKC=



000
FTUS42 KMLB 092334
TAFMCO
TAF
KMCO 092334Z 1000/1024 25012G18KT P6SM BKN050
     FM100300 28011KT P6SM FEW050 SCT250
     FM101400 30014G22KT P6SM SKC=



000
FTUS42 KMLB 092334
TAFSFB
TAF
KSFB 092334Z 1000/1024 26012G18KT P6SM BKN050
     FM100300 29011KT P6SM FEW050
     FM101400 30014G22KT P6SM SKC=



000
FTUS42 KMLB 092334
TAFMCO
TAF
KMCO 092334Z 1000/1024 25012G18KT P6SM BKN050
     FM100300 28011KT P6SM FEW050 SCT250
     FM101400 30014G22KT P6SM SKC=



000
FTUS42 KMLB 092334
TAFDAB
TAF
KDAB 092334Z 1000/1024 25012G18KT P6SM SCT050
     FM100300 28010KT P6SM FEW050
     FM101400 29015G23KT P6SM SKC=



000
FTUS42 KMLB 092334
TAFVRB
TAF
KVRB 092334Z 1000/1024 26011KT P6SM SCT050 BKN250
     FM100600 30011G18KT P6SM SCT050
     FM101400 30015G22KT P6SM SKC=



000
FTUS42 KMLB 092334
TAFMLB
TAF
KMLB 092334Z 1000/1024 25011KT P6SM SCT050 BKN250
     FM100600 28011G18KT P6SM FEW050 SCT250
     FM101400 30015G22KT P6SM SKC=



000
FTUS42 KMLB 092056 AAA
TAFMCO
TAF AMD
KMCO 092056Z 0921/1018 25017G26KT P6SM BKN050 BKN250
     FM100000 27012KT P6SM BKN050
     FM100600 30011KT P6SM SCT050
     FM101400 30014G22KT P6SM SKC=



000
FTUS42 KMLB 091739
TAFMCO
TAF
KMCO 091739Z 0918/1018 28018G25KT P6SM BKN060
     FM100000 27012KT P6SM BKN050
     FM100600 30011KT P6SM SCT050
     FM101400 30014G22KT P6SM SKC=



000
FTUS42 KMLB 091739
TAFSFB
TAF
KSFB 091739Z 0918/1018 28017G27KT P6SM BKN060
     FM100000 27012KT P6SM BKN050
     FM100600 30011KT P6SM SCT050
     FM101400 30014G22KT P6SM SKC=



000
FTUS42 KMLB 091739
TAFSFB
TAF
KSFB 091739Z 0918/1018 28017G27KT P6SM BKN060
     FM100000 27012KT P6SM BKN050
     FM100600 30011KT P6SM SCT050
     FM101400 30014G22KT P6SM SKC=



000
FTUS42 KMLB 091739
TAFVRB
TAF
KVRB 091739Z 0918/1018 27017G23KT P6SM BKN060
     FM100000 26011KT P6SM BKN050
     FM100600 29012G18KT P6SM SCT050
     FM101400 30015G22KT P6SM SKC=



000
FTUS42 KMLB 091739
TAFDAB
TAF
KDAB 091739Z 0918/1018 27018G28KT P6SM SCT060
     FM100000 27012G18KT P6SM FEW050
     FM101400 29015G23KT P6SM SKC=



000
FTUS42 KMLB 091739
TAFMLB
TAF
KMLB 091739Z 0918/1018 27015G22KT P6SM BKN060
     FM100000 26011KT P6SM BKN050
     FM100600 29012G18KT P6SM SCT050
     FM101400 30015G22KT P6SM SKC=



000
FTUS42 KMLB 091739
TAFMCO
TAF
KMCO 091739Z 0918/1018 28018G25KT P6SM BKN060
     FM100000 27012KT P6SM BKN050
     FM100600 30011KT P6SM SCT050
     FM101400 30014G22KT P6SM SKC=



000
FTUS42 KMLB 091739
TAFDAB
TAF
KDAB 091739Z 0918/1018 27018G28KT P6SM SCT060
     FM100000 27012G18KT P6SM FEW050
     FM101400 29015G23KT P6SM SKC=



000
FTUS42 KMLB 091739
TAFVRB
TAF
KVRB 091739Z 0918/1018 27017G23KT P6SM BKN060
     FM100000 26011KT P6SM BKN050
     FM100600 29012G18KT P6SM SCT050
     FM101400 30015G22KT P6SM SKC=



000
FTUS42 KMLB 091739
TAFMLB
TAF
KMLB 091739Z 0918/1018 27015G22KT P6SM BKN060
     FM100000 26011KT P6SM BKN050
     FM100600 29012G18KT P6SM SCT050
     FM101400 30015G22KT P6SM SKC=



000
FTUS42 KMLB 091503 AAA
TAFMCO
TAF AMD
KMCO 091503Z 0915/1012 29015G22KT P6SM SCT070
     FM091800 27020G30KT P6SM BKN060
     FM100000 27014KT P6SM SCT050=



000
FTUS42 KMLB 091503 AAA
TAFMCO
TAF AMD
KMCO 091503Z 0915/1012 29015G22KT P6SM SCT070
     FM091800 27020G30KT P6SM BKN060
     FM100000 27014KT P6SM SCT050=



000
FTUS42 KMLB 091122
TAFMCO
TAF
KMCO 091122Z 0912/1012 29015G22KT P6SM BKN050
     FM091700 27020G30KT P6SM BKN050
     FM100000 27014G20KT P6SM SCT050=



000
FTUS42 KMLB 091122
TAFDAB
TAF
KDAB 091122Z 0912/1012 28015G22KT P6SM BKN050
     FM091700 27020G30KT P6SM BKN050
     FM100000 27014G20KT P6SM SCT050=



000
FTUS42 KMLB 091122
TAFSFB
TAF
KSFB 091122Z 0912/1012 29015G22KT P6SM BKN050
     FM091700 27020G30KT P6SM BKN050
     FM100000 27014G20KT P6SM SCT050=



000
FTUS42 KMLB 091122
TAFSFB
TAF
KSFB 091122Z 0912/1012 29015G22KT P6SM BKN050
     FM091700 27020G30KT P6SM BKN050
     FM100000 27014G20KT P6SM SCT050=



000
FTUS42 KMLB 091122
TAFVRB
TAF
KVRB 091122Z 0912/1012 29014G20KT P6SM BKN050
     FM091700 27020G30KT P6SM BKN050
     FM100000 27015G20KT P6SM BKN050=



000
FTUS42 KMLB 091122
TAFDAB
TAF
KDAB 091122Z 0912/1012 28015G22KT P6SM BKN050
     FM091700 27020G30KT P6SM BKN050
     FM100000 27014G20KT P6SM SCT050=



000
FTUS42 KMLB 091122
TAFMLB
TAF
KMLB 091122Z 0912/1012 28015G22KT P6SM BKN050
     FM091700 27020G30KT P6SM BKN050
     FM100000 27015G20KT P6SM BKN050=



000
FTUS42 KMLB 091122
TAFMCO
TAF
KMCO 091122Z 0912/1012 29015G22KT P6SM BKN050
     FM091700 27020G30KT P6SM BKN050
     FM100000 27014G20KT P6SM SCT050=



000
FTUS42 KMLB 090858 AAA
TAFMCO
TAF AMD
KMCO 090858Z 0909/1006 28015G22KT P6SM BKN050 OVC080
     FM091700 27020G30KT P6SM BKN050
     FM100000 27014G20KT P6SM SCT050=



000
FTUS42 KMLB 090542
TAFSFB
TAF
KSFB 090542Z 0906/1006 28016G24KT P6SM BKN050 OVC080
      TEMPO 0906/0907 -SHRA
     FM091700 27020G30KT P6SM BKN050
     FM100000 27014G20KT P6SM SCT050=



000
FTUS42 KMLB 090542
TAFMCO
TAF
KMCO 090542Z 0906/1006 28016G24KT P6SM BKN050 OVC080
      TEMPO 0906/0907 -SHRA
     FM091700 27020G30KT P6SM BKN050
     FM100000 27014G20KT P6SM SCT050=



000
FTUS42 KMLB 090542
TAFVRB
TAF
KVRB 090542Z 0906/1006 26016G25KT P6SM BKN050 OVC080
      TEMPO 0906/0908 -SHRA
     FM091700 27020G30KT P6SM BKN050
     FM100000 27015G20KT P6SM BKN050=



000
FTUS42 KMLB 090542
TAFDAB
TAF
KDAB 090542Z 0906/1006 28016G24KT P6SM BKN050
      TEMPO 0906/0907 -SHRA
     FM091700 27020G30KT P6SM BKN050
     FM100000 27014G20KT P6SM SCT050=



000
FTUS42 KMLB 090542
TAFMLB
TAF
KMLB 090542Z 0906/1006 26016G25KT P6SM BKN050 OVC080
      TEMPO 0906/0908 -SHRA
     FM091700 27020G30KT P6SM BKN050
     FM100000 27015G20KT P6SM BKN050=



000
FTUS42 KMLB 090542
TAFSFB
TAF
KSFB 090542Z 0906/1006 28016G24KT P6SM BKN050 OVC080
      TEMPO 0906/0907 -SHRA
     FM091700 27020G30KT P6SM BKN050
     FM100000 27014G20KT P6SM SCT050=



000
FTUS42 KMLB 090542
TAFMCO
TAF
KMCO 090542Z 0906/1006 28016G24KT P6SM BKN050 OVC080
      TEMPO 0906/0907 -SHRA
     FM091700 27020G30KT P6SM BKN050
     FM100000 27014G20KT P6SM SCT050=



000
FTUS42 KMLB 090542
TAFDAB
TAF
KDAB 090542Z 0906/1006 28016G24KT P6SM BKN050
      TEMPO 0906/0907 -SHRA
     FM091700 27020G30KT P6SM BKN050
     FM100000 27014G20KT P6SM SCT050=



000
FTUS42 KMLB 090542
TAFMLB
TAF
KMLB 090542Z 0906/1006 26016G25KT P6SM BKN050 OVC080
      TEMPO 0906/0908 -SHRA
     FM091700 27020G30KT P6SM BKN050
     FM100000 27015G20KT P6SM BKN050=



000
FTUS42 KMLB 090542
TAFVRB
TAF
KVRB 090542Z 0906/1006 26016G25KT P6SM BKN050 OVC080
      TEMPO 0906/0908 -SHRA
     FM091700 27020G30KT P6SM BKN050
     FM100000 27015G20KT P6SM BKN050=



000
FTUS42 KMLB 090206 AAA
TAFDAB
TAF AMD
KDAB 090206Z 0902/0924 22010KT P6SM VCSH SCT040 BKN080
      WS015/25037KT
     FM090400 28016G24KT P6SM BKN050
     FM091700 27020G30KT P6SM BKN050=



000
FTUS42 KMLB 090204 AAA
TAFSFB
TAF AMD
KSFB 090204Z 0902/0924 23011KT P6SM VCSH SCT040 BKN080 BKN200
      WS015/25036KT
     FM090400 28016G24KT P6SM BKN050
     FM091700 27020G30KT P6SM BKN050=



000
FTUS42 KMLB 090204 AAA
TAFSFB
TAF AMD
KSFB 090204Z 0902/0924 23011KT P6SM VCSH SCT040 BKN080 BKN200
      WS015/25036KT
     FM090400 28016G24KT P6SM BKN050
     FM091700 27020G30KT P6SM BKN050=



000
FTUS42 KMLB 090202 AAA
TAFMCO
TAF AMD
KMCO 090202Z 0902/0924 23011KT P6SM VCSH SCT040 BKN080 BKN200
      WS015/25035KT
     FM090500 28016G24KT P6SM BKN050
     FM091700 27020G30KT P6SM BKN050=



000
FTUS42 KMLB 082337
TAFVRB
TAF
KVRB 082337Z 0900/0924 23011KT P6SM SCT050 BKN200 WS015/25032KT
     FM090600 26016G25KT P6SM BKN050
     FM091700 27020G30KT P6SM BKN050=



000
FTUS42 KMLB 082337
TAFSFB
TAF
KSFB 082337Z 0900/0924 24012KT P6SM SCT050 BKN200 WS015/25036KT
     FM090300 26016G24KT P6SM BKN050
     FM091700 27020G30KT P6SM BKN050=



000
FTUS42 KMLB 082337
TAFMLB
TAF
KMLB 082337Z 0900/0924 24012KT P6SM SCT050 BKN200 WS015/25034KT
     FM090500 26016G25KT P6SM BKN050
     FM091700 27020G30KT P6SM BKN050=



000
FTUS42 KMLB 082337
TAFDAB
TAF
KDAB 082337Z 0900/0924 24014KT P6SM SCT060 BKN200 WS015/25037KT
     FM090300 25016G24KT P6SM BKN050
     FM091700 27020G30KT P6SM BKN050=



000
FTUS42 KMLB 082337
TAFMCO
TAF
KMCO 082337Z 0900/0924 24012KT P6SM SCT050 BKN200 WS015/25035KT
     FM090400 26016G24KT P6SM BKN050
     FM091700 27020G30KT P6SM BKN050=



000
FTUS42 KMLB 082337
TAFMLB
TAF
KMLB 082337Z 0900/0924 24012KT P6SM SCT050 BKN200 WS015/25034KT
     FM090500 26016G25KT P6SM BKN050
     FM091700 27020G30KT P6SM BKN050=



000
FTUS42 KMLB 082337
TAFSFB
TAF
KSFB 082337Z 0900/0924 24012KT P6SM SCT050 BKN200 WS015/25036KT
     FM090300 26016G24KT P6SM BKN050
     FM091700 27020G30KT P6SM BKN050=



000
FTUS42 KMLB 082337
TAFVRB
TAF
KVRB 082337Z 0900/0924 23011KT P6SM SCT050 BKN200 WS015/25032KT
     FM090600 26016G25KT P6SM BKN050
     FM091700 27020G30KT P6SM BKN050=



000
FTUS42 KMLB 082337
TAFDAB
TAF
KDAB 082337Z 0900/0924 24014KT P6SM SCT060 BKN200 WS015/25037KT
     FM090300 25016G24KT P6SM BKN050
     FM091700 27020G30KT P6SM BKN050=



000
FTUS42 KMLB 082337
TAFMCO
TAF
KMCO 082337Z 0900/0924 24012KT P6SM SCT050 BKN200 WS015/25035KT
     FM090400 26016G24KT P6SM BKN050
     FM091700 27020G30KT P6SM BKN050=



000
FTUS42 KMLB 082259 AAA
TAFVRB
TAF AMD
KVRB 082259Z 0823/0918 23011KT P6SM SCT050 BKN250 WS015/25032KT
     FM090700 26018G25KT P6SM BKN050
     FM091600 27020G28KT P6SM BKN050=



000
FTUS42 KMLB 082259 AAA
TAFVRB
TAF AMD
KVRB 082259Z 0823/0918 23011KT P6SM SCT050 BKN250 WS015/25032KT
     FM090700 26018G25KT P6SM BKN050
     FM091600 27020G28KT P6SM BKN050=



000
FTUS42 KMLB 082219 AAB
TAFMLB
TAF AMD
KMLB 082219Z 0822/0918 24011KT P6SM SCT050 BKN250 WS015/25035KT
     FM090600 26015G25KT P6SM BKN050
     FM091600 27020G28KT P6SM BKN050=



000
FTUS42 KMLB 082104 AAA
TAFMCO
TAF AMD
KMCO 082104Z 0821/0918 24016G25KT P6SM SCT050 BKN300
      TEMPO 0821/0823 BKN050
     FM090000 25014KT P6SM VCSH BKN050 WS015/25035KT
     FM090600 28015G22KT P6SM BKN050
     FM091600 27020G30KT P6SM BKN050=



000
FTUS42 KMLB 082104 AAA
TAFMCO
TAF AMD
KMCO 082104Z 0821/0918 24016G25KT P6SM SCT050 BKN300
      TEMPO 0821/0823 BKN050
     FM090000 25014KT P6SM VCSH BKN050 WS015/25035KT
     FM090600 28015G22KT P6SM BKN050
     FM091600 27020G30KT P6SM BKN050=



000
FTUS42 KMLB 081739
TAFVRB
TAF
KVRB 081739Z 0818/0918 25014G20KT P6SM SCT050 SCT300
     FM090000 23011KT P6SM BKN050
     FM090800 28016G22KT P6SM BKN050
     FM091600 27020G28KT P6SM BKN050=



000
FTUS42 KMLB 081739
TAFDAB
TAF
KDAB 081739Z 0818/0918 24015G20KT P6SM SCT050 BKN300
      TEMPO 0819/0823 BKN050
     FM090000 26015G20KT P6SM VCSH BKN050
     FM090600 29015G22KT P6SM BKN050
     FM091600 27020G30KT P6SM BKN050=



000
FTUS42 KMLB 081739
TAFSFB
TAF
KSFB 081739Z 0818/0918 24014G20KT P6SM SCT050 BKN300
      TEMPO 0819/0823 BKN050
     FM090000 25014G18KT P6SM VCSH BKN050
     FM090600 28015G22KT P6SM BKN050
     FM091600 27020G30KT P6SM BKN050=



000
FTUS42 KMLB 081739
TAFMCO
TAF
KMCO 081739Z 0818/0918 24014G20KT P6SM SCT050 BKN300
      TEMPO 0819/0823 BKN050
     FM090000 25014G18KT P6SM VCSH BKN050
     FM090600 28015G22KT P6SM BKN050
     FM091600 27020G30KT P6SM BKN050=



000
FTUS42 KMLB 081739
TAFMLB
TAF
KMLB 081739Z 0818/0918 25014G20KT P6SM SCT050 SCT300
     FM090000 23011KT P6SM BKN050
     FM090700 28016G22KT P6SM BKN050
     FM091600 27020G30KT P6SM BKN050=



000
FTUS42 KMLB 081509 AAA
TAFMCO
TAF AMD
KMCO 081509Z 0815/0912 26010KT P6SM SCT300
     FM081800 25017G22KT P6SM SCT040 SCT250
     FM090000 26015G20KT P6SM VCSH BKN040=



000
FTUS42 KMLB 081122
TAFMLB
TAF
KMLB 081122Z 0812/0912 27007KT P6SM SKC
     FM081500 27012KT P6SM FEW040 SCT250
     FM081800 25016G22KT P6SM SCT040 SCT250
     FM090000 26016G22KT P6SM VCSH BKN040=



000
FTUS42 KMLB 081122
TAFSFB
TAF
KSFB 081122Z 0812/0912 27005KT P6SM SCT250
     FM081500 26012KT P6SM FEW040 SCT250
     FM081800 25017G22KT P6SM SCT040 SCT250
     FM090000 26015G20KT P6SM VCSH BKN040=



000
FTUS42 KMLB 081122
TAFVRB
TAF
KVRB 081122Z 0812/0912 27005KT P6SM SCT250
     FM081500 27012KT P6SM FEW040 SCT250
     FM081800 25016G22KT P6SM SCT040 SCT250
     FM090000 26015G20KT P6SM VCSH BKN040=



000
FTUS42 KMLB 081122
TAFDAB
TAF
KDAB 081122Z 0812/0912 26005KT P6SM SCT250
     FM081500 26010KT P6SM FEW040 SCT250
     FM081800 25015G22KT P6SM SCT040 SCT250
     FM090000 26015G20KT P6SM VCSH BKN040=



000
FTUS42 KMLB 081122
TAFMCO
TAF
KMCO 081122Z 0812/0912 26005KT P6SM SCT250
     FM081500 26012KT P6SM FEW040 SCT250
     FM081800 25017G22KT P6SM SCT040 SCT250
     FM090000 26015G20KT P6SM VCSH BKN040=



000
FTUS42 KMLB 080852 AAA
TAFMCO
TAF AMD
KMCO 080852Z 0809/0906 26005KT P6SM SKC
     FM081500 26012KT P6SM FEW040 SCT250
     FM081800 25017G22KT P6SM SCT040 SCT250
     FM090000 25015G20KT P6SM VCSH BKN040=



    US Dept of Commerce
    National Oceanic and Atmospheric Administration
    National Weather Service
    1325 East West Highway
    Silver Spring, MD 20910
    Page Author: NWS Internet Services Team
Disclaimer
Information Quality
Credits
Glossary
Privacy Policy
Freedom of Information Act (FOIA)
About Us
Career Opportunities